Terminal Aerodrome Forecast
Issued by NWS

Home | Current Version | Previous Version | Text Only | Print | Product List | Glossary On
Versions: 1 2 3 4 5 6 7 8 9 10 11 12 13 14 15 16 17 18
000
FTAK31 PAFA 242335
TAFABT
TAF
PABT 242335Z 2500/2524 15004KT 2SM -SN BR BKN010 OVC020
     FM250800 20010KT 4SM -SHSN BR BKN015 OVC025
     FM251400 19006KT P6SM SCT015 BKN025
     FM252200 20006KT 2SM -SN BR SCT007 BKN015 OVC025=

USA.gov is the U.S. government's official web portal to all federal, state and local government web resources and services.